Time;durP1;ratioP1;P1;durP2;ratioP2;P2;SDS_P1;SDS_P2;PMS_P1;PMS_P2;Temp;Humidity;BMP_temperature;BMP_pressure;BME280_temperature;BME280_humidity;BME280_pressure;Samples;Min_cycle;Max_cycle;Signal;HPM_P1;HPM_P2
2022/11/23 00:02:03;;;;;;;;;;;;;;;19.30;46.29;99300.47;5139368;27;20765;-38
2022/11/23 00:04:29;;;;;;;;;;;;;;;19.33;46.64;99306.47;5140304;27;19932;-39
2022/11/23 00:06:55;;;;;;;;;;;;;;;19.31;46.62;99306.78;5135537;27;20007;-39
2022/11/23 00:09:20;;;;;;;;;;;;;;;19.32;46.47;99307.59;5138914;27;19942;-38
2022/11/23 00:11:46;;;;;;;;;;;;;;;19.30;46.28;99305.16;5135869;27;19929;-39
2022/11/23 00:14:11;;;;;;;;;;;;;;;19.31;46.48;99309.56;5136909;27;19923;-39
2022/11/23 00:16:37;;;;;;;;;;;;;;;19.32;46.24;99307.59;5140751;27;19953;-38
2022/11/23 00:19:02;;;;;;;;;;;;;;;19.30;46.35;99313.44;5139156;27;19934;-39
2022/11/23 00:21:29;;;;;;;;;;;;;;;19.30;46.30;99314.25;5137066;27;19930;-39
2022/11/23 00:23:54;;;;;;;;;;;;;;;19.30;46.55;99316.22;5133619;27;20393;-40
2022/11/23 00:26:20;;;;;;;;;;;;;;;19.30;46.61;99321.72;5137945;27;19931;-38
2022/11/23 00:28:46;;;;;;;;;;;;;;;19.30;46.20;99313.44;5138448;27;19923;-38
2022/11/23 00:31:12;;;;;;;;;;;;;;;19.30;46.33;99317.03;5126191;27;20302;-39
2022/11/23 00:33:38;;;;;;;;;;;;;;;19.29;46.64;99315.38;5139029;27;20438;-39
2022/11/23 00:36:05;;;;;;;;;;;;;;;19.30;46.35;99324.50;5119782;27;19975;-39
2022/11/23 00:38:30;;;;;;;;;;;;;;;19.29;46.65;99317.31;5141389;27;19962;-39
2022/11/23 00:40:57;;;;;;;;;;;;;;;19.29;46.27;99318.13;5125567;27;20283;-38
2022/11/23 00:43:23;;;;;;;;;;;;;;;19.29;46.27;99317.31;5122920;27;19932;-41
2022/11/23 00:45:49;;;;;;;;;;;;;;;19.29;46.45;99322.84;5138241;27;20027;-39
2022/11/23 00:48:15;;;;;;;;;;;;;;;19.28;46.46;99324.78;5142161;27;19966;-38
2022/11/23 00:50:40;;;;;;;;;;;;;;;19.29;46.63;99325.59;5143085;27;19923;-37
2022/11/23 00:53:06;;;;;;;;;;;;;;;19.29;46.46;99325.59;5142822;27;19923;-39
2022/11/23 00:55:32;;;;;;;;;;;;;;;19.29;46.44;99328.34;5141648;27;19967;-40
2022/11/23 00:57:57;;;;;;;;;;;;;;;19.29;46.49;99336.63;5146208;27;20264;-37
2022/11/23 01:00:23;;;;;;;;;;;;;;;19.28;46.64;99335.84;5144643;27;20000;-38
2022/11/23 01:02:48;;;;;;;;;;;;;;;19.28;46.46;99338.59;5140441;27;19923;-39
2022/11/23 01:05:14;;;;;;;;;;;;;;;19.28;46.28;99338.59;5141936;27;19968;-39
2022/11/23 01:07:39;;;;;;;;;;;;;;;19.28;46.56;99341.34;5144846;27;19938;-39
2022/11/23 01:10:07;;;;;;;;;;;;;;;19.28;46.57;99341.34;5142170;27;19950;-38
2022/11/23 01:12:32;;;;;;;;;;;;;;;19.28;46.61;99346.88;5144544;27;20392;-39
2022/11/23 01:14:58;;;;;;;;;;;;;;;19.28;46.68;99354.34;5139857;27;20014;-39
2022/11/23 01:17:23;;;;;;;;;;;;;;;19.28;46.53;99357.09;5124286;27;19927;-38
2022/11/23 01:19:49;;;;;;;;;;;;;;;19.28;46.44;99359.88;5142365;27;19946;-39
2022/11/23 01:22:14;;;;;;;;;;;;;;;19.27;46.43;99366.53;5138907;27;19942;-38
2022/11/23 01:24:40;;;;;;;;;;;;;;;19.27;46.41;99361.00;5141407;27;19973;-39
2022/11/23 01:27:05;;;;;;;;;;;;;;;19.28;46.44;99365.38;5144134;27;19930;-37
2022/11/23 01:29:31;;;;;;;;;;;;;;;19.28;46.29;99363.44;5145069;27;19923;-38
2022/11/23 01:31:57;;;;;;;;;;;;;;;19.27;46.46;99358.25;5140767;27;20539;-39
2022/11/23 01:34:22;;;;;;;;;;;;;;;19.27;46.51;99364.56;5135370;27;19976;-40
2022/11/23 01:36:48;;;;;;;;;;;;;;;19.27;46.39;99372.03;5145459;27;20189;-38
2022/11/23 01:39:14;;;;;;;;;;;;;;;19.26;46.41;99365.72;5148238;27;19949;-39
2022/11/23 01:41:40;;;;;;;;;;;;;;;19.26;46.38;99360.19;5141295;27;19931;-38
2022/11/23 01:44:25;;;;;;;;;;;;;;;19.27;46.42;99370.09;5119336;27;20248;-37
2022/11/23 01:46:51;;;;;;;;;;;;;;;19.27;46.51;99367.34;5124937;27;20451;-39
2022/11/23 01:49:16;;;;;;;;;;;;;;;19.27;46.42;99372.03;5140903;27;19923;-40
2022/11/23 01:51:43;;;;;;;;;;;;;;;19.27;46.29;99369.28;5142280;27;19923;-39
2022/11/23 01:54:10;;;;;;;;;;;;;;;19.26;46.23;99370.41;5119827;27;20055;-39
2022/11/23 01:56:38;;;;;;;;;;;;;;;19.26;46.68;99365.72;5125533;27;20470;-39
2022/11/23 01:59:04;;;;;;;;;;;;;;;19.27;46.46;99377.56;5143917;27;19962;-40
2022/11/23 02:01:29;;;;;;;;;;;;;;;19.26;46.73;99376.75;5142560;27;19923;-39
2022/11/23 02:03:55;;;;;;;;;;;;;;;19.26;46.72;99376.75;5140641;27;19927;-39
2022/11/23 02:06:20;;;;;;;;;;;;;;;19.26;46.71;99379.50;5119705;27;20355;-39
2022/11/23 02:08:46;;;;;;;;;;;;;;;19.26;46.38;99382.28;5146980;27;20291;-38
2022/11/23 02:11:12;;;;;;;;;;;;;;;19.26;46.49;99382.28;5143287;27;19930;-39
2022/11/23 02:13:37;;;;;;;;;;;;;;;19.26;46.32;99386.97;5122919;27;19971;-38
2022/11/23 02:16:03;;;;;;;;;;;;;;;19.26;46.46;99385.03;5140906;27;19928;-39
2022/11/23 02:18:29;;;;;;;;;;;;;;;19.25;46.49;99388.91;5145556;27;20367;-38
2022/11/23 02:20:56;;;;;;;;;;;;;;;19.26;46.39;99389.75;5122169;27;20421;-40
2022/11/23 02:23:41;;;;;;;;;;;;;;;19.27;46.67;99388.59;5115783;27;19992;-39
2022/11/23 02:26:08;;;;;;;;;;;;;;;19.25;46.46;99385.34;5124092;27;19966;-37
2022/11/23 02:28:35;;;;;;;;;;;;;;;19.25;46.65;99391.66;5136217;27;19928;-39
2022/11/23 02:31:02;;;;;;;;;;;;;;;19.25;46.50;99388.09;5138917;27;20342;-37
2022/11/23 02:33:27;;;;;;;;;;;;;;;19.24;46.35;99381.75;5140609;27;19966;-38
2022/11/23 02:35:54;;;;;;;;;;;;;;;19.26;46.39;99389.75;5139723;27;19931;-38
2022/11/23 02:38:20;;;;;;;;;;;;;;;19.25;46.65;99396.38;5138351;27;19978;-39
2022/11/23 02:40:45;;;;;;;;;;;;;;;19.25;46.58;99394.41;5120881;27;19924;-39
2022/11/23 02:43:11;;;;;;;;;;;;;;;19.25;46.46;99399.94;5119459;27;19963;-39
2022/11/23 02:45:41;;;;;;;;;;;;;;;19.24;46.47;99398.31;5141906;27;19945;-39
2022/11/23 02:48:07;;;;;;;;;;;;;;;19.25;46.29;99401.91;5139430;27;19958;-39
2022/11/23 02:50:32;;;;;;;;;;;;;;;19.24;46.53;99398.31;5141447;27;20275;-39
2022/11/23 02:52:58;;;;;;;;;;;;;;;19.24;46.39;99401.09;5139365;27;20356;-39
2022/11/23 02:55:23;;;;;;;;;;;;;;;19.24;46.39;99398.31;5147144;27;19934;-39
2022/11/23 02:57:49;;;;;;;;;;;;;;;19.24;46.39;99406.59;5141390;27;19930;-39
2022/11/23 03:00:15;;;;;;;;;;;;;;;19.25;46.37;99401.91;5137253;27;20330;-37
2022/11/23 03:02:41;;;;;;;;;;;;;;;19.23;46.32;99407.75;5140346;27;19927;-39
2022/11/23 03:05:06;;;;;;;;;;;;;;;19.24;46.59;99400.28;5145406;27;19931;-39
2022/11/23 03:07:32;;;;;;;;;;;;;;;19.24;46.31;99406.59;5127786;27;19923;-38
2022/11/23 03:09:58;;;;;;;;;;;;;;;19.25;46.34;99410.16;5139137;27;20302;-38
2022/11/23 03:12:23;;;;;;;;;;;;;;;19.23;46.77;99407.75;5117487;27;20516;-39
2022/11/23 03:14:49;;;;;;;;;;;;;;;19.24;46.49;99412.13;5138992;27;19923;-38
2022/11/23 03:17:14;;;;;;;;;;;;;;;19.23;46.35;99402.22;5141770;27;19923;-39
2022/11/23 03:19:40;;;;;;;;;;;;;;;19.24;46.40;99406.59;5138729;27;19927;-39
2022/11/23 03:22:06;;;;;;;;;;;;;;;19.23;46.84;99410.50;5144239;27;19977;-38
2022/11/23 03:24:31;;;;;;;;;;;;;;;19.23;46.69;99413.25;5136616;27;19923;-39
2022/11/23 03:26:57;;;;;;;;;;;;;;;19.23;46.57;99416.03;5143923;27;20001;-39
2022/11/23 03:29:25;;;;;;;;;;;;;;;19.23;46.71;99406.94;5137219;27;19930;-38
2022/11/23 03:31:51;;;;;;;;;;;;;;;19.24;46.75;99419.59;5140533;27;20438;-39
2022/11/23 03:34:16;;;;;;;;;;;;;;;19.23;46.75;99404.16;5136143;27;19970;-39
2022/11/23 03:36:42;;;;;;;;;;;;;;;19.23;46.65;99407.75;5123788;27;19924;-39
2022/11/23 03:39:08;;;;;;;;;;;;;;;19.22;46.48;99400.59;5140922;27;19923;-38
2022/11/23 03:41:33;;;;;;;;;;;;;;;19.23;46.57;99406.94;5124164;27;19931;-39
2022/11/23 03:43:59;;;;;;;;;;;;;;;19.23;46.78;99412.44;5143155;27;19931;-37
2022/11/23 03:46:24;;;;;;;;;;;;;;;19.24;46.44;99414.88;5138089;27;20393;-39
2022/11/23 03:48:50;;;;;;;;;;;;;;;19.23;46.45;99418.78;5140181;27;19930;-39
2022/11/23 03:51:15;;;;;;;;;;;;;;;19.22;46.74;99408.88;5137645;27;19930;-39
2022/11/23 03:53:41;;;;;;;;;;;;;;;19.22;46.45;99408.88;5139654;27;19923;-39
2022/11/23 03:56:07;;;;;;;;;;;;;;;19.23;46.53;99412.44;5142406;27;19923;-39
2022/11/23 03:58:32;;;;;;;;;;;;;;;19.22;46.58;99405.31;5134696;27;19923;-37
2022/11/23 04:00:58;;;;;;;;;;;;;;;19.22;46.83;99413.59;5144720;27;19938;-37
2022/11/23 04:03:23;;;;;;;;;;;;;;;19.22;46.42;99408.06;5140197;27;20190;-38
2022/11/23 04:05:49;;;;;;;;;;;;;;;19.22;46.40;99408.06;5138494;27;19972;-40
2022/11/23 04:08:14;;;;;;;;;;;;;;;19.22;46.45;99406.13;5144581;27;20299;-37
2022/11/23 04:10:40;;;;;;;;;;;;;;;19.22;46.42;99408.06;5141187;27;19931;-39
2022/11/23 04:13:06;;;;;;;;;;;;;;;19.21;46.67;99410.03;5135740;27;19958;-37
2022/11/23 04:15:31;;;;;;;;;;;;;;;19.22;46.40;99408.06;5132522;27;19923;-39
2022/11/23 04:17:57;;;;;;;;;;;;;;;19.22;46.81;99413.59;5143090;27;19938;-37
2022/11/23 04:20:22;;;;;;;;;;;;;;;19.22;46.51;99410.81;5141191;27;20356;-39
2022/11/23 04:22:48;;;;;;;;;;;;;;;19.21;46.83;99410.03;5137291;27;20041;-38
2022/11/23 04:25:13;;;;;;;;;;;;;;;19.22;46.48;99411.63;5142209;27;19930;-38
2022/11/23 04:27:39;;;;;;;;;;;;;;;19.21;46.67;99415.53;5141832;27;20309;-37
2022/11/23 04:30:05;;;;;;;;;;;;;;;19.21;46.56;99418.28;5147227;27;19927;-40
2022/11/23 04:32:30;;;;;;;;;;;;;;;19.22;46.74;99414.41;5139513;27;19984;-39
2022/11/23 04:34:56;;;;;;;;;;;;;;;19.21;46.58;99418.28;5140289;27;19930;-39
2022/11/23 04:37:21;;;;;;;;;;;;;;;19.21;46.78;99410.03;5139823;27;20344;-38
2022/11/23 04:39:47;;;;;;;;;;;;;;;19.22;46.71;99410.81;5145296;27;19923;-37
2022/11/23 04:42:12;;;;;;;;;;;;;;;19.22;46.59;99414.41;5135801;27;19923;-38
2022/11/23 04:44:38;;;;;;;;;;;;;;;19.21;46.83;99415.53;5118031;27;20374;-39
2022/11/23 04:47:04;;;;;;;;;;;;;;;19.22;46.63;99413.59;5141367;27;20361;-38
2022/11/23 04:49:29;;;;;;;;;;;;;;;19.21;46.61;99412.78;5143466;27;19930;-38
2022/11/23 04:51:55;;;;;;;;;;;;;;;19.21;46.73;99421.06;5132816;27;20398;-36
2022/11/23 04:54:21;;;;;;;;;;;;;;;19.22;46.90;99421.88;5136371;27;20398;-39
2022/11/23 04:56:46;;;;;;;;;;;;;;;19.21;46.97;99414.69;5147604;27;19923;-40
2022/11/23 04:59:12;;;;;;;;;;;;;;;19.21;46.59;99426.56;5143441;27;19931;-39
2022/11/23 05:01:38;;;;;;;;;;;;;;;19.20;46.55;99416.66;5137420;27;19963;-39
2022/11/23 05:04:03;;;;;;;;;;;;;;;19.21;46.63;99418.28;5137933;27;20395;-39
2022/11/23 05:06:29;;;;;;;;;;;;;;;19.21;47.04;99415.53;5141564;27;19976;-39
2022/11/23 05:08:54;;;;;;;;;;;;;;;19.21;46.68;99421.06;5130820;27;20383;-39
2022/11/23 05:11:20;;;;;;;;;;;;;;;19.21;46.61;99420.22;5143423;27;19927;-39
2022/11/23 05:13:45;;;;;;;;;;;;;;;19.21;46.98;99414.69;5141853;27;20074;-39
2022/11/23 05:16:11;;;;;;;;;;;;;;;19.21;46.72;99421.06;5140222;27;19945;-39
2022/11/23 05:18:37;;;;;;;;;;;;;;;19.20;46.96;99416.66;5132485;27;19923;-39
2022/11/23 05:21:02;;;;;;;;;;;;;;;19.20;46.80;99419.41;5134792;27;19930;-39
2022/11/23 05:23:28;;;;;;;;;;;;;;;19.22;46.77;99424.63;5136506;27;20337;-39
2022/11/23 05:25:53;;;;;;;;;;;;;;;19.21;46.91;99425.72;5139086;27;19938;-40
2022/11/23 05:28:19;;;;;;;;;;;;;;;19.20;46.90;99430.44;5145393;27;19946;-39
2022/11/23 05:31:05;;;;;;;;;;;;;;;19.19;46.78;99426.06;5132084;27;19926;-37
2022/11/23 05:33:31;;;;;;;;;;;;;;;19.20;46.70;99432.41;5137167;27;19931;-38
2022/11/23 05:35:56;;;;;;;;;;;;;;;19.21;46.64;99422.97;5139065;27;19976;-37
2022/11/23 05:38:22;;;;;;;;;;;;;;;19.21;46.61;99432.09;5123289;27;19949;-37
2022/11/23 05:40:47;;;;;;;;;;;;;;;19.20;46.91;99424.94;5140660;27;19930;-39
2022/11/23 05:43:13;;;;;;;;;;;;;;;19.20;46.64;99424.94;5145748;27;19923;-36
2022/11/23 05:45:38;;;;;;;;;;;;;;;19.21;46.58;99428.50;5139617;27;19923;-38
2022/11/23 05:48:04;;;;;;;;;;;;;;;19.20;46.89;99422.16;5146095;27;19981;-39
2022/11/23 05:50:30;;;;;;;;;;;;;;;19.21;47.06;99434.84;5124990;27;19932;-39
2022/11/23 05:52:56;;;;;;;;;;;;;;;19.20;46.67;99427.69;5126641;27;19927;-39
2022/11/23 05:55:21;;;;;;;;;;;;;;;19.20;46.89;99429.63;5141338;27;19951;-38
2022/11/23 05:57:47;;;;;;;;;;;;;;;19.19;46.95;99428.81;5146421;27;19923;-39
2022/11/23 06:00:13;;;;;;;;;;;;;;;19.19;46.60;99426.06;5143592;27;19923;-39
2022/11/23 06:02:38;;;;;;;;;;;;;;;19.19;46.81;99430.78;5138330;27;20363;-39
2022/11/23 06:05:07;;;;;;;;;;;;;;;19.19;46.82;99434.34;5138608;27;19941;-38
2022/11/23 06:07:32;;;;;;;;;;;;;;;19.19;46.71;99428.81;5121882;27;20010;-37
2022/11/23 06:09:58;;;;;;;;;;;;;;;19.20;46.67;99438.72;5140382;27;19926;-39
2022/11/23 06:12:24;;;;;;;;;;;;;;;19.20;46.91;99432.41;5141198;27;19923;-39
2022/11/23 06:14:49;;;;;;;;;;;;;;;19.19;46.65;99431.59;5137860;27;19924;-39
2022/11/23 06:17:15;;;;;;;;;;;;;;;19.19;46.96;99430.78;5139145;27;19927;-39
2022/11/23 06:19:40;;;;;;;;;;;;;;;19.19;46.93;99428.00;5138148;27;19954;-38
2022/11/23 06:22:06;;;;;;;;;;;;;;;19.19;46.74;99437.09;5138587;27;20895;-37
2022/11/23 06:24:31;;;;;;;;;;;;;;;19.19;46.86;99428.81;5120163;27;20432;-39
2022/11/23 06:26:57;;;;;;;;;;;;;;;19.19;46.63;99431.59;5121690;27;20022;-38
2022/11/23 06:29:22;;;;;;;;;;;;;;;19.19;47.07;99428.00;5141044;27;19976;-36
2022/11/23 06:31:48;;;;;;;;;;;;;;;19.20;46.88;99437.91;5138298;27;19922;-39
2022/11/23 06:34:14;;;;;;;;;;;;;;;19.18;46.80;99429.97;5135604;27;19935;-38
2022/11/23 06:36:39;;;;;;;;;;;;;;;19.19;47.17;99434.34;5118250;27;19938;-39
2022/11/23 06:39:05;;;;;;;;;;;;;;;19.19;46.66;99430.78;5136388;27;20294;-38
2022/11/23 06:41:30;;;;;;;;;;;;;;;19.18;46.82;99429.97;5138683;27;19976;-39
2022/11/23 06:43:57;;;;;;;;;;;;;;;19.19;46.73;99433.53;5137605;27;20000;-39
2022/11/23 06:46:23;;;;;;;;;;;;;;;19.19;46.86;99436.28;5134676;27;20371;-38
2022/11/23 06:48:49;;;;;;;;;;;;;;;19.19;46.96;99436.28;5136743;27;19927;-38
2022/11/23 06:51:14;;;;;;;;;;;;;;;19.20;46.75;99437.91;5140246;27;19957;-39
2022/11/23 06:53:40;;;;;;;;;;;;;;;19.20;46.82;99443.44;5140825;27;19923;-39
2022/11/23 06:56:06;;;;;;;;;;;;;;;19.19;46.79;99450.09;5139421;27;19927;-37
2022/11/23 06:58:31;;;;;;;;;;;;;;;19.18;47.15;99446.53;5130430;27;20555;-39
2022/11/23 07:01:00;;;;;;;;;;;;;;;19.18;46.86;99441.00;5113843;27;20576;-39
2022/11/23 07:03:26;;;;;;;;;;;;;;;19.18;46.78;99446.53;5116010;27;19970;-38
2022/11/23 07:05:52;;;;;;;;;;;;;;;19.18;46.77;99443.75;5114165;27;19930;-39
2022/11/23 07:08:17;;;;;;;;;;;;;;;19.18;46.71;99446.53;5130199;27;19962;-39
2022/11/23 07:10:43;;;;;;;;;;;;;;;19.18;47.01;99448.47;5138337;27;19923;-39
2022/11/23 07:13:09;;;;;;;;;;;;;;;19.18;46.86;99452.03;5143797;27;20026;-38
2022/11/23 07:15:35;;;;;;;;;;;;;;;19.19;46.87;99450.09;5121235;27;20068;-37
2022/11/23 07:18:01;;;;;;;;;;;;;;;19.19;46.93;99461.94;5122754;27;21747;-39
2022/11/23 07:20:26;;;;;;;;;;;;;;;19.18;46.91;99463.09;5143121;27;19970;-39
2022/11/23 07:23:09;;;;;;;;;;;;;;;19.18;46.90;99457.56;5142388;27;20366;-39
2022/11/23 07:25:35;;;;;;;;;;;;;;;19.18;46.90;99454.00;5138604;27;19950;-39
2022/11/23 07:28:01;;;;;;;;;;;;;;;19.18;46.60;99457.56;5138115;27;19978;-39
2022/11/23 07:30:27;;;;;;;;;;;;;;;19.18;47.15;99463.09;5138498;27;19947;-39
2022/11/23 07:33:02;;;;;;;;;;;;;;;19.18;46.67;99454.81;5118786;27;19931;-39
2022/11/23 07:35:28;;;;;;;;;;;;;;;19.18;46.99;99460.31;5122600;27;19991;-39
2022/11/23 07:37:53;;;;;;;;;;;;;;;19.19;46.91;99463.88;5123295;27;20284;-37
2022/11/23 07:40:19;;;;;;;;;;;;;;;19.18;46.84;99474.13;5134548;27;19923;-39
2022/11/23 07:42:45;;;;;;;;;;;;;;;19.18;46.89;99479.63;5140726;27;19927;-39
2022/11/23 07:45:10;;;;;;;;;;;;;;;19.18;47.04;99482.41;5136096;27;20260;-40
2022/11/23 07:47:36;;;;;;;;;;;;;;;19.20;46.97;99476.56;5140392;27;20322;-39
2022/11/23 07:50:02;;;;;;;;;;;;;;;19.17;46.83;99480.78;5114215;27;19934;-40
2022/11/23 07:52:28;;;;;;;;;;;;;;;19.18;47.03;99485.16;5136266;27;20935;-39
2022/11/23 07:58:22;;;;;;;;;;;;;;;19.18;46.84;99506.41;5131017;27;19988;-37
2022/11/23 08:00:47;;;;;;;;;;;;;;;19.18;46.83;99496.19;5131405;27;19974;-40
2022/11/23 08:03:13;;;;;;;;;;;;;;;19.18;47.05;99495.38;5119232;27;19935;-39
2022/11/23 08:05:55;;;;;;;;;;;;;;;19.18;47.22;99506.41;5117270;27;19931;-39
2022/11/23 08:08:21;;;;;;;;;;;;;;;19.18;47.03;99496.19;5119130;27;19968;-39
2022/11/23 08:10:46;;;;;;;;;;;;;;;19.18;47.04;99507.22;5125041;27;19931;-37
2022/11/23 08:13:19;;;;;;;;;;;;;;;19.18;47.14;99507.22;5129167;27;20415;-40
2022/11/23 08:15:44;;;;;;;;;;;;;;;19.18;46.91;99512.75;5128205;27;20510;-38
2022/11/23 08:18:18;;;;;;;;;;;;;;;19.19;46.86;99513.56;5132349;27;20433;-37
2022/11/23 08:20:44;;;;;;;;;;;;;;;19.18;46.81;99514.69;5128647;27;19931;-38
2022/11/23 08:23:09;;;;;;;;;;;;;;;19.18;46.70;99518.28;5124917;27;20442;-38
2022/11/23 08:25:35;;;;;;;;;;;;;;;19.18;47.04;99511.94;5120681;27;19931;-39
2022/11/23 08:28:02;;;;;;;;;;;;;;;19.17;46.98;99516.66;5124009;27;20374;-39
2022/11/23 08:30:28;;;;;;;;;;;;;;;19.19;47.16;99516.31;5111382;27;20014;-37
2022/11/23 08:32:53;;;;;;;;;;;;;;;19.17;46.89;99513.88;5108469;27;19935;-38
2022/11/23 08:35:19;;;;;;;;;;;;;;;19.18;46.97;99510.00;5107144;27;19927;-41
2022/11/23 08:37:45;;;;;;;;;;;;;;;19.18;47.09;99514.69;5114364;27;19951;-39
2022/11/23 08:40:11;;;;;;;;;;;;;;;19.18;47.00;99517.47;5134891;27;19931;-39
2022/11/23 08:42:36;;;;;;;;;;;;;;;19.18;47.07;99522.97;5131178;27;20060;-39
2022/11/23 08:45:04;;;;;;;;;;;;;;;19.18;47.12;99523.78;5128002;27;19939;-39
2022/11/23 08:47:31;;;;;;;;;;;;;;;19.18;47.06;99532.06;5127129;27;19942;-37
2022/11/23 08:49:56;;;;;;;;;;;;;;;19.17;46.83;99530.44;5131335;27;20383;-38
2022/11/23 08:52:22;;;;;;;;;;;;;;;19.17;47.11;99527.69;5135643;27;19930;-38
2022/11/23 08:54:48;;;;;;;;;;;;;;;19.17;47.14;99522.16;5134278;27;20021;-39
2022/11/23 08:57:13;;;;;;;;;;;;;;;19.17;46.94;99530.44;5113767;27;19938;-39
2022/11/23 08:59:39;;;;;;;;;;;;;;;19.18;47.24;99526.56;5132036;27;20287;-38
2022/11/23 09:02:05;;;;;;;;;;;;;;;19.18;46.98;99528.50;5137349;27;19939;-38
2022/11/23 09:04:30;;;;;;;;;;;;;;;19.18;47.16;99525.75;5134809;27;19928;-38
2022/11/23 09:06:56;;;;;;;;;;;;;;;19.17;47.09;99535.97;5130523;27;19943;-39
2022/11/23 09:09:21;;;;;;;;;;;;;;;19.17;46.88;99527.69;5130399;27;20328;-40
2022/11/23 09:11:47;;;;;;;;;;;;;;;19.19;47.06;99530.13;5133028;27;19954;-38
2022/11/23 09:14:13;;;;;;;;;;;;;;;19.19;46.81;99530.94;5123258;27;19953;-40
2022/11/23 09:16:38;;;;;;;;;;;;;;;19.20;47.57;99534.50;5130121;27;19935;-42
2022/11/23 09:19:06;;;;;;;;;;;;;;;19.21;47.76;99528.69;5132513;27;21319;-38
2022/11/23 09:21:34;;;;;;;;;;;;;;;19.21;47.49;99531.44;5136417;27;19958;-40
2022/11/23 09:24:00;;;;;;;;;;;;;;;19.20;47.40;99532.56;5136068;27;20014;-40
2022/11/23 09:26:25;;;;;;;;;;;;;;;19.21;47.15;99525.09;5115679;27;20025;-40
2022/11/23 09:28:51;;;;;;;;;;;;;;;19.20;47.49;99532.56;5137539;27;19984;-41
2022/11/23 09:31:16;;;;;;;;;;;;;;;19.22;47.45;99535.84;5134903;27;19923;-40
2022/11/23 09:33:42;;;;;;;;;;;;;;;19.23;47.22;99539.41;5110822;27;19931;-38
2022/11/23 09:36:08;;;;;;;;;;;;;;;19.23;47.32;99542.16;5105835;27;19959;-39
2022/11/23 09:38:34;;;;;;;;;;;;;;;19.23;47.17;99539.41;5116157;27;20219;-38
2022/11/23 09:41:22;;;;;;;;;;;;;;;19.22;47.56;99540.53;5108830;27;19932;-40
2022/11/23 09:43:51;;;;;;;;;;;;;;;19.23;47.25;99544.94;5133416;27;19997;-40
2022/11/23 09:46:37;;;;;;;;;;;;;;;19.21;47.30;99536.97;5131708;27;20166;-39
2022/11/23 09:49:09;;;;;;;;;;;;;;;19.21;47.47;99542.50;5118153;27;20478;-40
2022/11/23 09:51:35;;;;;;;;;;;;;;;19.17;46.57;99532.38;5136051;27;20026;-40
2022/11/23 09:54:03;;;;;;;;;;;;;;;19.22;47.08;99537.78;5131823;27;20383;-40
2022/11/23 09:56:29;;;;;;;;;;;;;;;19.19;46.65;99533.69;5119426;27;19963;-39
2022/11/23 09:58:56;;;;;;;;;;;;;;;19.23;47.42;99522.84;5119355;27;20017;-39
2022/11/23 10:01:21;;;;;;;;;;;;;;;19.24;47.43;99519.75;5136466;27;19926;-37
2022/11/23 10:03:47;;;;;;;;;;;;;;;19.25;47.06;99529.66;5134765;27;19936;-38
2022/11/23 10:06:17;;;;;;;;;;;;;;;19.26;47.27;99530.50;5132399;27;20523;-40
2022/11/23 10:08:46;;;;;;;;;;;;;;;19.26;46.78;99536.84;5121929;27;20355;-40
2022/11/23 10:11:32;;;;;;;;;;;;;;;19.31;47.14;99535.88;5135620;27;19983;-40
2022/11/23 10:14:02;;;;;;;;;;;;;;;19.09;44.65;99539.47;5112016;27;20010;-42
2022/11/23 10:16:35;;;;;;;;;;;;;;;19.23;46.70;99542.16;5129594;27;20343;-38
2022/11/23 10:19:19;;;;;;;;;;;;;;;19.28;47.05;99536.50;5129540;27;20018;-39
2022/11/23 10:22:05;;;;;;;;;;;;;;;19.28;46.98;99523.53;5133235;27;20077;-38
2022/11/23 10:24:32;;;;;;;;;;;;;;;19.29;47.24;99521.56;5120076;27;20019;-39
2022/11/23 10:26:58;;;;;;;;;;;;;;;19.30;47.18;99510.25;5131452;27;19999;-39
2022/11/23 10:29:39;;;;;;;;;;;;;;;19.29;47.10;99502.25;5132435;27;19995;-40
2022/11/23 10:32:05;;;;;;;;;;;;;;;19.28;47.19;99506.97;5128305;27;20057;-39
2022/11/23 10:37:17;;;;;;;;;;;;;;;19.30;47.49;99492.88;5143562;27;19930;-41
2022/11/23 10:39:42;;;;;;;;;;;;;;;19.29;47.14;99486.50;5101066;27;19923;-39
2022/11/23 10:42:28;;;;;;;;;;;;;;;19.31;47.16;99483.44;5125985;27;20350;-37
2022/11/23 10:44:53;;;;;;;;;;;;;;;19.31;47.37;99480.69;5105315;27;19966;-38
2022/11/23 10:47:32;;;;;;;;;;;;;;;19.31;47.20;99475.16;5131238;27;20063;-38
2022/11/23 10:49:57;;;;;;;;;;;;;;;19.30;47.12;99466.06;5122312;27;19975;-39
2022/11/23 10:52:27;;;;;;;;;;;;;;;19.32;47.15;99471.25;5131186;27;19923;-38
2022/11/23 10:54:54;;;;;;;;;;;;;;;19.34;47.01;99459.91;5135049;27;19972;-37
2022/11/23 10:57:21;;;;;;;;;;;;;;;19.34;47.26;99451.63;5132266;27;20694;-39
2022/11/23 11:00:06;;;;;;;;;;;;;;;19.34;47.30;99455.19;5131223;27;20027;-38
2022/11/23 11:02:40;;;;;;;;;;;;;;;19.33;47.50;99453.56;5111194;27;20481;-39
2022/11/23 11:05:14;;;;;;;;;;;;;;;19.41;46.87;99449.22;5113508;27;20038;-38
2022/11/23 11:07:39;;;;;;;;;;;;;;;19.39;46.97;99452.31;5133707;27;20014;-39
2022/11/23 11:10:05;;;;;;;;;;;;;;;19.38;46.98;99442.38;5124904;27;19946;-39
2022/11/23 11:12:32;;;;;;;;;;;;;;;19.38;47.22;99436.03;5121979;27;20207;-40
2022/11/23 11:15:01;;;;;;;;;;;;;;;19.38;47.37;99436.03;5109969;27;19985;-39
2022/11/23 11:17:38;;;;;;;;;;;;;;;19.37;46.22;99428.91;5134281;27;19950;-40
2022/11/23 11:20:23;;;;;;;;;;;;;;;19.38;47.16;99433.28;5120161;27;20207;-39
2022/11/23 11:22:49;;;;;;;;;;;;;;;19.39;47.10;99429.41;5109845;27;20291;-39
2022/11/23 11:25:31;;;;;;;;;;;;;;;19.38;45.00;99430.53;5118745;27;20329;-38
2022/11/23 11:27:56;;;;;;;;;;;;;;;19.42;46.33;99423.22;5132286;27;20014;-40
2022/11/23 11:30:22;;;;;;;;;;;;;;;19.41;46.72;99425.19;5115225;27;20017;-41
2022/11/23 11:33:08;;;;;;;;;;;;;;;19.41;46.68;99429.91;5131048;27;19931;-40
2022/11/23 11:35:34;;;;;;;;;;;;;;;19.41;46.91;99432.66;5104397;27;20022;-40
2022/11/23 11:38:01;;;;;;;;;;;;;;;19.40;45.70;99431.03;5119498;27;19932;-41
2022/11/23 11:40:36;;;;;;;;;;;;;;;19.00;42.40;99431.00;5093320;27;19979;-42
2022/11/23 11:43:22;;;;;;;;;;;;;;;18.84;42.73;99430.56;5096445;28;20054;-42
2022/11/23 11:46:01;;;;;;;;;;;;;;;19.21;43.32;99431.25;5102185;27;19987;-40
2022/11/23 11:48:54;;;;;;;;;;;;;;;19.35;44.70;99429.22;5082857;28;20353;-40
2022/11/23 11:51:23;;;;;;;;;;;;;;;19.39;44.76;99430.22;5096342;28;19924;-40
2022/11/23 11:53:54;;;;;;;;;;;;;;;19.41;44.24;99416.91;5097679;28;20038;-39
2022/11/23 11:56:26;;;;;;;;;;;;;;;19.42;45.39;99420.47;5113814;27;20246;-39
2022/11/23 11:58:55;;;;;;;;;;;;;;;19.42;44.65;99420.47;5113948;27;19973;-40
2022/11/23 12:01:26;;;;;;;;;;;;;;;19.42;44.70;99426.00;5099021;28;19967;-39
2022/11/23 12:03:54;;;;;;;;;;;;;;;19.43;45.70;99420.19;5102331;28;19979;-41
2022/11/23 12:06:20;;;;;;;;;;;;;;;19.44;45.03;99426.50;5100165;28;20023;-40
2022/11/23 12:09:05;;;;;;;;;;;;;;;19.43;45.49;99417.41;5111400;27;20382;-40
2022/11/23 12:11:30;;;;;;;;;;;;;;;19.39;43.25;99421.13;5097772;28;20069;-40
2022/11/23 12:13:58;;;;;;;;;;;;;;;19.48;45.17;99416.47;5098338;28;19935;-41
2022/11/23 12:16:30;;;;;;;;;;;;;;;19.52;44.24;99411.94;5113344;27;19959;-42
2022/11/23 12:18:59;;;;;;;;;;;;;;;19.38;43.76;99413.97;5100753;28;20598;-41
2022/11/23 12:21:29;;;;;;;;;;;;;;;19.44;45.03;99413.50;5080895;28;19978;-41
2022/11/23 12:23:59;;;;;;;;;;;;;;;19.46;44.92;99410.44;5099601;28;19932;-41
2022/11/23 12:26:28;;;;;;;;;;;;;;;19.46;45.29;99405.72;5098663;28;20374;-42
2022/11/23 12:29:13;;;;;;;;;;;;;;;19.46;45.28;99405.72;5097331;28;19942;-42
2022/11/23 12:31:42;;;;;;;;;;;;;;;19.47;44.94;99393.56;5085402;28;19964;-41
2022/11/23 12:34:13;;;;;;;;;;;;;;;19.48;44.84;99400.69;5091087;28;20126;-41
2022/11/23 12:39:21;;;;;;;;;;;;;;;19.47;45.86;99379.75;5147203;27;19945;-39
2022/11/23 12:42:07;;;;;;;;;;;;;;;19.42;43.56;99385.41;5151175;27;19966;-38
2022/11/23 12:44:40;;;;;;;;;;;;;;;19.50;43.86;99381.03;5132798;27;20099;-38
2022/11/23 12:47:10;;;;;;;;;;;;;;;19.49;43.67;99374.72;5150323;27;19971;-39
2022/11/23 12:49:40;;;;;;;;;;;;;;;19.50;44.12;99368.03;5148231;27;20068;-37
2022/11/23 12:52:26;;;;;;;;;;;;;;;19.49;43.88;99358.16;5152859;27;20670;-38
2022/11/23 12:55:11;;;;;;;;;;;;;;;19.49;44.25;99357.34;5139606;27;20034;-38
2022/11/23 12:57:48;;;;;;;;;;;;;;;19.50;44.61;99353.44;5139663;27;19927;-39
2022/11/23 13:00:16;;;;;;;;;;;;;;;19.50;44.51;99356.19;5156053;27;21111;-39